sensor_id;sensor_type;location;lat;lon;timestamp;temperature;humidity
44121;DHT22;29783;52.504;13.478;2023-04-25T00:01:11;8.80;77.10
44121;DHT22;29783;52.504;13.478;2023-04-25T00:03:38;8.70;77.30
44121;DHT22;29783;52.504;13.478;2023-04-25T00:06:04;8.60;77.60
44121;DHT22;29783;52.504;13.478;2023-04-25T00:08:30;8.70;77.20
44121;DHT22;29783;52.504;13.478;2023-04-25T00:10:57;8.70;76.90
44121;DHT22;29783;52.504;13.478;2023-04-25T00:13:22;8.70;76.60
44121;DHT22;29783;52.504;13.478;2023-04-25T00:15:48;8.80;76.20
44121;DHT22;29783;52.504;13.478;2023-04-25T00:18:14;8.80;75.50
44121;DHT22;29783;52.504;13.478;2023-04-25T00:20:40;8.80;75.20
44121;DHT22;29783;52.504;13.478;2023-04-25T00:23:13;8.80;75.50
44121;DHT22;29783;52.504;13.478;2023-04-25T00:25:44;8.80;75.10
44121;DHT22;29783;52.504;13.478;2023-04-25T00:28:10;8.80;74.90
44121;DHT22;29783;52.504;13.478;2023-04-25T00:30:36;8.80;74.90
44121;DHT22;29783;52.504;13.478;2023-04-25T00:33:01;8.80;74.50
44121;DHT22;29783;52.504;13.478;2023-04-25T00:35:27;8.90;74.10
44121;DHT22;29783;52.504;13.478;2023-04-25T00:37:54;8.80;74.10
44121;DHT22;29783;52.504;13.478;2023-04-25T00:40:20;8.80;74.40
44121;DHT22;29783;52.504;13.478;2023-04-25T00:42:47;8.80;74.20
44121;DHT22;29783;52.504;13.478;2023-04-25T00:45:14;8.90;74.10
44121;DHT22;29783;52.504;13.478;2023-04-25T00:47:43;8.90;73.90
44121;DHT22;29783;52.504;13.478;2023-04-25T00:50:09;8.80;74.30
44121;DHT22;29783;52.504;13.478;2023-04-25T00:52:37;8.80;74.50
44121;DHT22;29783;52.504;13.478;2023-04-25T00:55:03;8.80;74.40
44121;DHT22;29783;52.504;13.478;2023-04-25T00:57:29;8.80;74.50
44121;DHT22;29783;52.504;13.478;2023-04-25T00:59:55;8.80;74.60
44121;DHT22;29783;52.504;13.478;2023-04-25T01:02:21;8.80;74.70
44121;DHT22;29783;52.504;13.478;2023-04-25T01:04:47;8.80;74.60
44121;DHT22;29783;52.504;13.478;2023-04-25T01:07:13;8.80;74.50
44121;DHT22;29783;52.504;13.478;2023-04-25T01:09:39;8.80;74.60
44121;DHT22;29783;52.504;13.478;2023-04-25T01:12:05;8.80;74.70
44121;DHT22;29783;52.504;13.478;2023-04-25T01:14:31;8.80;74.80
44121;DHT22;29783;52.504;13.478;2023-04-25T01:16:57;8.80;74.60
44121;DHT22;29783;52.504;13.478;2023-04-25T01:19:23;8.80;74.70
44121;DHT22;29783;52.504;13.478;2023-04-25T01:21:50;8.80;74.60
44121;DHT22;29783;52.504;13.478;2023-04-25T01:24:16;8.80;74.70
44121;DHT22;29783;52.504;13.478;2023-04-25T01:26:42;8.80;74.80
44121;DHT22;29783;52.504;13.478;2023-04-25T01:29:19;8.80;74.60
44121;DHT22;29783;52.504;13.478;2023-04-25T01:31:46;8.80;74.40
44121;DHT22;29783;52.504;13.478;2023-04-25T01:34:12;8.80;74.40
44121;DHT22;29783;52.504;13.478;2023-04-25T01:36:38;8.80;74.60
44121;DHT22;29783;52.504;13.478;2023-04-25T01:39:04;8.80;74.30
44121;DHT22;29783;52.504;13.478;2023-04-25T01:41:30;8.90;74.30
44121;DHT22;29783;52.504;13.478;2023-04-25T01:43:56;8.90;74.20
44121;DHT22;29783;52.504;13.478;2023-04-25T01:46:21;8.90;74.20
44121;DHT22;29783;52.504;13.478;2023-04-25T01:48:47;9.00;74.10
44121;DHT22;29783;52.504;13.478;2023-04-25T01:51:13;8.90;74.20
44121;DHT22;29783;52.504;13.478;2023-04-25T01:53:39;8.90;74.00
44121;DHT22;29783;52.504;13.478;2023-04-25T01:56:05;9.00;73.70
44121;DHT22;29783;52.504;13.478;2023-04-25T01:58:31;8.90;73.90
44121;DHT22;29783;52.504;13.478;2023-04-25T02:00:56;9.00;73.90
44121;DHT22;29783;52.504;13.478;2023-04-25T02:03:22;9.00;73.90
44121;DHT22;29783;52.504;13.478;2023-04-25T02:05:48;9.00;73.90
44121;DHT22;29783;52.504;13.478;2023-04-25T02:08:13;8.90;74.10
44121;DHT22;29783;52.504;13.478;2023-04-25T02:10:40;8.90;74.00
44121;DHT22;29783;52.504;13.478;2023-04-25T02:13:06;9.00;74.10
44121;DHT22;29783;52.504;13.478;2023-04-25T02:15:32;9.00;74.00
44121;DHT22;29783;52.504;13.478;2023-04-25T02:17:57;9.00;73.60
44121;DHT22;29783;52.504;13.478;2023-04-25T02:20:24;9.00;73.80
44121;DHT22;29783;52.504;13.478;2023-04-25T02:22:50;9.00;74.10
44121;DHT22;29783;52.504;13.478;2023-04-25T02:25:16;9.00;73.70
44121;DHT22;29783;52.504;13.478;2023-04-25T02:27:42;9.00;73.70
44121;DHT22;29783;52.504;13.478;2023-04-25T02:30:08;9.00;73.80
44121;DHT22;29783;52.504;13.478;2023-04-25T02:32:34;9.00;73.90
44121;DHT22;29783;52.504;13.478;2023-04-25T02:35:01;9.00;74.00
44121;DHT22;29783;52.504;13.478;2023-04-25T02:37:30;8.90;74.10
44121;DHT22;29783;52.504;13.478;2023-04-25T02:39:56;8.90;74.10
44121;DHT22;29783;52.504;13.478;2023-04-25T02:42:21;8.90;74.10
44121;DHT22;29783;52.504;13.478;2023-04-25T02:44:47;8.90;74.00
44121;DHT22;29783;52.504;13.478;2023-04-25T02:47:13;8.80;74.40
44121;DHT22;29783;52.504;13.478;2023-04-25T02:49:38;8.80;74.50
44121;DHT22;29783;52.504;13.478;2023-04-25T02:52:04;8.80;74.80
44121;DHT22;29783;52.504;13.478;2023-04-25T02:54:30;8.80;74.80
44121;DHT22;29783;52.504;13.478;2023-04-25T02:56:56;8.80;74.40
44121;DHT22;29783;52.504;13.478;2023-04-25T02:59:21;8.90;74.50
44121;DHT22;29783;52.504;13.478;2023-04-25T03:01:47;8.80;74.70
44121;DHT22;29783;52.504;13.478;2023-04-25T03:04:13;8.80;74.30
44121;DHT22;29783;52.504;13.478;2023-04-25T03:06:38;8.80;74.60
44121;DHT22;29783;52.504;13.478;2023-04-25T03:09:04;8.80;74.40
44121;DHT22;29783;52.504;13.478;2023-04-25T03:11:29;8.80;74.60
44121;DHT22;29783;52.504;13.478;2023-04-25T03:13:55;8.80;74.70
44121;DHT22;29783;52.504;13.478;2023-04-25T03:16:21;8.80;74.80
44121;DHT22;29783;52.504;13.478;2023-04-25T03:18:47;8.80;74.40
44121;DHT22;29783;52.504;13.478;2023-04-25T03:21:12;8.70;74.60
44121;DHT22;29783;52.504;13.478;2023-04-25T03:23:38;8.80;74.60
44121;DHT22;29783;52.504;13.478;2023-04-25T03:26:04;8.80;74.70
44121;DHT22;29783;52.504;13.478;2023-04-25T03:28:29;8.80;74.90
44121;DHT22;29783;52.504;13.478;2023-04-25T03:30:55;8.80;74.50
44121;DHT22;29783;52.504;13.478;2023-04-25T03:33:21;8.80;74.70
44121;DHT22;29783;52.504;13.478;2023-04-25T03:35:46;8.70;74.90
44121;DHT22;29783;52.504;13.478;2023-04-25T03:38:12;8.70;75.00
44121;DHT22;29783;52.504;13.478;2023-04-25T03:40:38;8.80;75.00
44121;DHT22;29783;52.504;13.478;2023-04-25T03:43:03;8.80;74.90
44121;DHT22;29783;52.504;13.478;2023-04-25T03:47:58;8.80;74.90
44121;DHT22;29783;52.504;13.478;2023-04-25T03:50:24;8.80;74.90
44121;DHT22;29783;52.504;13.478;2023-04-25T03:52:50;8.80;74.90
44121;DHT22;29783;52.504;13.478;2023-04-25T03:55:15;8.80;75.00
44121;DHT22;29783;52.504;13.478;2023-04-25T03:57:41;8.80;74.90
44121;DHT22;29783;52.504;13.478;2023-04-25T04:00:07;8.70;75.00
44121;DHT22;29783;52.504;13.478;2023-04-25T04:02:33;8.80;74.90
44121;DHT22;29783;52.504;13.478;2023-04-25T04:05:00;8.70;75.10
44121;DHT22;29783;52.504;13.478;2023-04-25T04:07:26;8.70;75.20
44121;DHT22;29783;52.504;13.478;2023-04-25T04:09:51;8.70;75.10
44121;DHT22;29783;52.504;13.478;2023-04-25T04:12:17;8.70;75.20
44121;DHT22;29783;52.504;13.478;2023-04-25T04:14:43;8.70;75.30
44121;DHT22;29783;52.504;13.478;2023-04-25T04:17:08;8.70;75.50
44121;DHT22;29783;52.504;13.478;2023-04-25T04:19:35;8.70;75.10
44121;DHT22;29783;52.504;13.478;2023-04-25T04:22:00;8.70;75.20
44121;DHT22;29783;52.504;13.478;2023-04-25T04:24:26;8.70;75.40
44121;DHT22;29783;52.504;13.478;2023-04-25T04:26:51;8.70;75.10
44121;DHT22;29783;52.504;13.478;2023-04-25T04:29:17;8.70;75.00
44121;DHT22;29783;52.504;13.478;2023-04-25T04:31:50;8.70;75.30
44121;DHT22;29783;52.504;13.478;2023-04-25T04:34:16;8.80;75.30
44121;DHT22;29783;52.504;13.478;2023-04-25T04:36:44;8.70;75.30
44121;DHT22;29783;52.504;13.478;2023-04-25T04:39:13;8.70;75.50
44121;DHT22;29783;52.504;13.478;2023-04-25T04:41:39;8.80;75.10
44121;DHT22;29783;52.504;13.478;2023-04-25T04:44:05;8.80;75.10
44121;DHT22;29783;52.504;13.478;2023-04-25T04:46:32;8.80;75.10
44121;DHT22;29783;52.504;13.478;2023-04-25T04:49:05;8.80;75.20
44121;DHT22;29783;52.504;13.478;2023-04-25T04:51:31;8.80;75.00
44121;DHT22;29783;52.504;13.478;2023-04-25T04:53:57;8.80;75.00
44121;DHT22;29783;52.504;13.478;2023-04-25T04:56:30;8.90;74.90
44121;DHT22;29783;52.504;13.478;2023-04-25T04:58:57;8.90;75.00
44121;DHT22;29783;52.504;13.478;2023-04-25T05:01:23;9.00;74.60
44121;DHT22;29783;52.504;13.478;2023-04-25T05:03:48;9.00;74.90
44121;DHT22;29783;52.504;13.478;2023-04-25T05:06:16;8.90;74.50
44121;DHT22;29783;52.504;13.478;2023-04-25T05:08:41;8.90;74.60
44121;DHT22;29783;52.504;13.478;2023-04-25T05:11:07;8.90;74.70
44121;DHT22;29783;52.504;13.478;2023-04-25T05:13:32;9.00;74.70
44121;DHT22;29783;52.504;13.478;2023-04-25T05:15:58;9.00;74.60
44121;DHT22;29783;52.504;13.478;2023-04-25T05:18:23;9.00;74.60
44121;DHT22;29783;52.504;13.478;2023-04-25T05:20:49;9.00;74.60
44121;DHT22;29783;52.504;13.478;2023-04-25T05:23:15;9.10;74.50
44121;DHT22;29783;52.504;13.478;2023-04-25T05:25:41;9.00;74.50
44121;DHT22;29783;52.504;13.478;2023-04-25T05:28:07;9.00;74.70
44121;DHT22;29783;52.504;13.478;2023-04-25T05:30:34;9.00;74.70
44121;DHT22;29783;52.504;13.478;2023-04-25T05:32:59;9.10;74.40
44121;DHT22;29783;52.504;13.478;2023-04-25T05:35:27;9.00;74.40
44121;DHT22;29783;52.504;13.478;2023-04-25T05:37:52;9.00;74.70
44121;DHT22;29783;52.504;13.478;2023-04-25T05:40:18;9.10;74.70
44121;DHT22;29783;52.504;13.478;2023-04-25T05:42:44;9.10;74.50
44121;DHT22;29783;52.504;13.478;2023-04-25T05:45:10;9.10;74.30
44121;DHT22;29783;52.504;13.478;2023-04-25T05:47:35;9.20;74.30
44121;DHT22;29783;52.504;13.478;2023-04-25T05:50:01;9.20;74.10
44121;DHT22;29783;52.504;13.478;2023-04-25T05:52:27;9.30;74.50
44121;DHT22;29783;52.504;13.478;2023-04-25T05:54:53;9.30;74.00
44121;DHT22;29783;52.504;13.478;2023-04-25T05:57:25;9.30;74.00
44121;DHT22;29783;52.504;13.478;2023-04-25T05:59:51;9.30;74.10
44121;DHT22;29783;52.504;13.478;2023-04-25T06:02:18;9.20;74.40
44121;DHT22;29783;52.504;13.478;2023-04-25T06:04:44;9.30;74.10
44121;DHT22;29783;52.504;13.478;2023-04-25T06:07:10;9.30;74.30
44121;DHT22;29783;52.504;13.478;2023-04-25T06:09:35;9.20;74.60
44121;DHT22;29783;52.504;13.478;2023-04-25T06:12:01;9.10;75.00
44121;DHT22;29783;52.504;13.478;2023-04-25T06:14:27;9.20;75.00
44121;DHT22;29783;52.504;13.478;2023-04-25T06:16:53;9.10;75.30
44121;DHT22;29783;52.504;13.478;2023-04-25T06:19:18;9.10;75.60
44121;DHT22;29783;52.504;13.478;2023-04-25T06:21:44;9.10;75.50
44121;DHT22;29783;52.504;13.478;2023-04-25T06:24:10;9.20;75.70
44121;DHT22;29783;52.504;13.478;2023-04-25T06:26:36;9.30;75.50
44121;DHT22;29783;52.504;13.478;2023-04-25T06:29:01;9.30;75.30
44121;DHT22;29783;52.504;13.478;2023-04-25T06:31:27;9.40;75.20
44121;DHT22;29783;52.504;13.478;2023-04-25T06:33:54;9.50;75.20
44121;DHT22;29783;52.504;13.478;2023-04-25T06:36:20;9.60;74.80
44121;DHT22;29783;52.504;13.478;2023-04-25T06:38:51;9.50;74.80
44121;DHT22;29783;52.504;13.478;2023-04-25T06:41:17;9.40;75.30
44121;DHT22;29783;52.504;13.478;2023-04-25T06:43:43;9.50;74.80
44121;DHT22;29783;52.504;13.478;2023-04-25T06:46:08;9.40;75.10
44121;DHT22;29783;52.504;13.478;2023-04-25T06:48:34;9.50;75.30
44121;DHT22;29783;52.504;13.478;2023-04-25T06:51:00;9.40;75.60
44121;DHT22;29783;52.504;13.478;2023-04-25T06:53:26;9.50;75.30
44121;DHT22;29783;52.504;13.478;2023-04-25T06:55:51;9.60;75.10
44121;DHT22;29783;52.504;13.478;2023-04-25T06:58:17;9.50;75.30
44121;DHT22;29783;52.504;13.478;2023-04-25T07:00:43;9.50;75.70
44121;DHT22;29783;52.504;13.478;2023-04-25T07:03:09;9.60;75.50
44121;DHT22;29783;52.504;13.478;2023-04-25T07:05:35;9.40;75.40
44121;DHT22;29783;52.504;13.478;2023-04-25T07:08:00;9.50;75.80
44121;DHT22;29783;52.504;13.478;2023-04-25T07:10:26;9.40;75.90
44121;DHT22;29783;52.504;13.478;2023-04-25T07:12:53;9.40;76.30
44121;DHT22;29783;52.504;13.478;2023-04-25T07:15:18;9.50;76.00
44121;DHT22;29783;52.504;13.478;2023-04-25T07:17:44;9.50;75.60
44121;DHT22;29783;52.504;13.478;2023-04-25T07:20:10;9.50;75.80
44121;DHT22;29783;52.504;13.478;2023-04-25T07:22:36;9.30;76.30
44121;DHT22;29783;52.504;13.478;2023-04-25T07:25:01;9.30;76.60
44121;DHT22;29783;52.504;13.478;2023-04-25T07:27:27;9.30;77.10
44121;DHT22;29783;52.504;13.478;2023-04-25T07:29:53;9.30;77.20
44121;DHT22;29783;52.504;13.478;2023-04-25T07:32:19;9.00;78.40
44121;DHT22;29783;52.504;13.478;2023-04-25T07:34:45;8.80;79.20
44121;DHT22;29783;52.504;13.478;2023-04-25T07:37:11;8.70;79.50
44121;DHT22;29783;52.504;13.478;2023-04-25T07:39:36;8.80;80.00
44121;DHT22;29783;52.504;13.478;2023-04-25T07:42:03;9.00;77.60
44121;DHT22;29783;52.504;13.478;2023-04-25T07:44:29;9.10;77.10
44121;DHT22;29783;52.504;13.478;2023-04-25T07:46:56;9.20;76.60
44121;DHT22;29783;52.504;13.478;2023-04-25T07:49:21;9.30;76.10
44121;DHT22;29783;52.504;13.478;2023-04-25T07:51:47;9.30;75.60
44121;DHT22;29783;52.504;13.478;2023-04-25T07:54:14;9.30;75.00
44121;DHT22;29783;52.504;13.478;2023-04-25T07:56:40;9.50;74.00
44121;DHT22;29783;52.504;13.478;2023-04-25T07:59:05;9.70;73.50
44121;DHT22;29783;52.504;13.478;2023-04-25T08:01:31;9.80;72.30
44121;DHT22;29783;52.504;13.478;2023-04-25T08:03:56;9.80;71.60
44121;DHT22;29783;52.504;13.478;2023-04-25T08:06:22;9.80;71.50
44121;DHT22;29783;52.504;13.478;2023-04-25T08:08:48;9.80;71.00
44121;DHT22;29783;52.504;13.478;2023-04-25T08:11:13;9.60;71.10
44121;DHT22;29783;52.504;13.478;2023-04-25T08:13:39;9.40;71.20
44121;DHT22;29783;52.504;13.478;2023-04-25T08:16:05;9.30;72.00
44121;DHT22;29783;52.504;13.478;2023-04-25T08:18:30;9.70;71.60
44121;DHT22;29783;52.504;13.478;2023-04-25T08:20:56;10.20;69.20
44121;DHT22;29783;52.504;13.478;2023-04-25T08:23:22;10.70;66.20
44121;DHT22;29783;52.504;13.478;2023-04-25T08:25:47;10.70;65.70
44121;DHT22;29783;52.504;13.478;2023-04-25T08:28:14;10.60;65.50
44121;DHT22;29783;52.504;13.478;2023-04-25T08:30:40;10.50;65.60
44121;DHT22;29783;52.504;13.478;2023-04-25T08:33:06;10.50;65.80
44121;DHT22;29783;52.504;13.478;2023-04-25T08:35:32;10.70;66.00
44121;DHT22;29783;52.504;13.478;2023-04-25T08:37:58;10.90;65.10
44121;DHT22;29783;52.504;13.478;2023-04-25T08:40:27;10.80;63.90
44121;DHT22;29783;52.504;13.478;2023-04-25T08:42:57;10.60;65.30
44121;DHT22;29783;52.504;13.478;2023-04-25T08:45:23;10.90;63.50
44121;DHT22;29783;52.504;13.478;2023-04-25T08:47:51;10.80;63.80
44121;DHT22;29783;52.504;13.478;2023-04-25T08:50:18;10.70;61.90
44121;DHT22;29783;52.504;13.478;2023-04-25T08:52:47;10.40;62.70
44121;DHT22;29783;52.504;13.478;2023-04-25T08:55:15;10.20;61.70
44121;DHT22;29783;52.504;13.478;2023-04-25T08:57:42;10.30;61.40
44121;DHT22;29783;52.504;13.478;2023-04-25T09:00:12;10.30;59.70
44121;DHT22;29783;52.504;13.478;2023-04-25T09:02:39;10.30;59.30
44121;DHT22;29783;52.504;13.478;2023-04-25T09:05:05;10.40;58.60
44121;DHT22;29783;52.504;13.478;2023-04-25T09:07:32;10.50;58.40
44121;DHT22;29783;52.504;13.478;2023-04-25T09:09:58;10.40;58.20
44121;DHT22;29783;52.504;13.478;2023-04-25T09:12:29;10.40;57.60
44121;DHT22;29783;52.504;13.478;2023-04-25T09:15:09;10.50;57.90
44121;DHT22;29783;52.504;13.478;2023-04-25T09:17:37;10.40;56.30
44121;DHT22;29783;52.504;13.478;2023-04-25T09:20:13;10.20;56.40
44121;DHT22;29783;52.504;13.478;2023-04-25T09:22:39;10.30;56.10
44121;DHT22;29783;52.504;13.478;2023-04-25T09:25:11;10.50;55.80
44121;DHT22;29783;52.504;13.478;2023-04-25T09:27:50;10.70;54.60
44121;DHT22;29783;52.504;13.478;2023-04-25T09:30:17;11.10;52.60
44121;DHT22;29783;52.504;13.478;2023-04-25T09:32:43;11.50;51.60
44121;DHT22;29783;52.504;13.478;2023-04-25T09:35:09;11.50;50.20
44121;DHT22;29783;52.504;13.478;2023-04-25T09:37:35;11.30;51.20
44121;DHT22;29783;52.504;13.478;2023-04-25T09:40:05;11.20;51.10
44121;DHT22;29783;52.504;13.478;2023-04-25T09:42:31;11.30;51.30
44121;DHT22;29783;52.504;13.478;2023-04-25T09:45:00;11.20;51.40
44121;DHT22;29783;52.504;13.478;2023-04-25T09:47:27;11.20;51.70
44121;DHT22;29783;52.504;13.478;2023-04-25T09:49:54;11.40;51.00
44121;DHT22;29783;52.504;13.478;2023-04-25T09:52:24;11.70;50.90
44121;DHT22;29783;52.504;13.478;2023-04-25T09:54:51;12.00;47.70
44121;DHT22;29783;52.504;13.478;2023-04-25T09:57:22;12.00;45.80
44121;DHT22;29783;52.504;13.478;2023-04-25T09:59:49;11.80;46.20
44121;DHT22;29783;52.504;13.478;2023-04-25T10:02:17;11.80;45.20
44121;DHT22;29783;52.504;13.478;2023-04-25T10:04:48;11.70;46.20
44121;DHT22;29783;52.504;13.478;2023-04-25T10:07:14;11.60;46.30
44121;DHT22;29783;52.504;13.478;2023-04-25T10:09:40;11.80;45.80
44121;DHT22;29783;52.504;13.478;2023-04-25T10:12:08;11.60;45.80
44121;DHT22;29783;52.504;13.478;2023-04-25T10:14:34;11.50;46.50
44121;DHT22;29783;52.504;13.478;2023-04-25T10:17:00;11.80;46.40
44121;DHT22;29783;52.504;13.478;2023-04-25T10:19:27;11.90;45.90
44121;DHT22;29783;52.504;13.478;2023-04-25T10:22:03;12.00;44.70
44121;DHT22;29783;52.504;13.478;2023-04-25T10:24:30;12.10;44.50
44121;DHT22;29783;52.504;13.478;2023-04-25T10:26:56;12.30;44.60
44121;DHT22;29783;52.504;13.478;2023-04-25T10:29:26;12.20;44.10
44121;DHT22;29783;52.504;13.478;2023-04-25T10:31:52;12.00;44.20
44121;DHT22;29783;52.504;13.478;2023-04-25T10:34:18;12.00;44.20
44121;DHT22;29783;52.504;13.478;2023-04-25T10:36:50;12.00;44.20
44121;DHT22;29783;52.504;13.478;2023-04-25T10:39:27;11.90;44.70
44121;DHT22;29783;52.504;13.478;2023-04-25T10:44:20;12.00;45.00
44121;DHT22;29783;52.504;13.478;2023-04-25T10:46:46;12.00;45.40
44121;DHT22;29783;52.504;13.478;2023-04-25T10:49:29;11.90;45.60
44121;DHT22;29783;52.504;13.478;2023-04-25T10:54:53;11.60;45.80
44121;DHT22;29783;52.504;13.478;2023-04-25T10:57:48;11.40;46.10
44121;DHT22;29783;52.504;13.478;2023-04-25T11:00:17;11.40;46.00
44121;DHT22;29783;52.504;13.478;2023-04-25T11:08:00;11.90;45.30
44121;DHT22;29783;52.504;13.478;2023-04-25T11:10:27;12.00;44.90
44121;DHT22;29783;52.504;13.478;2023-04-25T11:12:53;12.20;44.30
44121;DHT22;29783;52.504;13.478;2023-04-25T11:15:19;12.10;44.80
44121;DHT22;29783;52.504;13.478;2023-04-25T11:17:44;12.50;44.20
44121;DHT22;29783;52.504;13.478;2023-04-25T11:20:12;12.40;44.20
44121;DHT22;29783;52.504;13.478;2023-04-25T11:22:40;12.30;43.50
44121;DHT22;29783;52.504;13.478;2023-04-25T11:25:10;12.20;43.70
44121;DHT22;29783;52.504;13.478;2023-04-25T11:30:19;11.20;46.30
44121;DHT22;29783;52.504;13.478;2023-04-25T11:32:45;10.80;47.80
44121;DHT22;29783;52.504;13.478;2023-04-25T11:35:11;10.60;48.40
44121;DHT22;29783;52.504;13.478;2023-04-25T11:37:39;10.60;48.80
44121;DHT22;29783;52.504;13.478;2023-04-25T11:40:06;10.40;48.10
44121;DHT22;29783;52.504;13.478;2023-04-25T11:42:32;10.40;47.70
44121;DHT22;29783;52.504;13.478;2023-04-25T11:44:59;10.40;46.20
44121;DHT22;29783;52.504;13.478;2023-04-25T11:47:32;10.40;44.80
44121;DHT22;29783;52.504;13.478;2023-04-25T11:50:06;10.60;45.00
44121;DHT22;29783;52.504;13.478;2023-04-25T11:52:39;10.70;44.50
44121;DHT22;29783;52.504;13.478;2023-04-25T11:55:10;10.70;44.00
44121;DHT22;29783;52.504;13.478;2023-04-25T11:57:37;11.00;43.90
44121;DHT22;29783;52.504;13.478;2023-04-25T12:02:35;11.70;42.00
44121;DHT22;29783;52.504;13.478;2023-04-25T12:05:01;11.80;40.90
44121;DHT22;29783;52.504;13.478;2023-04-25T12:07:31;11.80;41.10
44121;DHT22;29783;52.504;13.478;2023-04-25T12:09:57;11.50;41.50
44121;DHT22;29783;52.504;13.478;2023-04-25T12:12:27;11.50;42.20
44121;DHT22;29783;52.504;13.478;2023-04-25T12:14:53;11.60;42.80
44121;DHT22;29783;52.504;13.478;2023-04-25T12:17:20;11.50;42.70
44121;DHT22;29783;52.504;13.478;2023-04-25T12:19:47;11.70;42.40
44121;DHT22;29783;52.504;13.478;2023-04-25T12:22:23;11.80;42.60
44121;DHT22;29783;52.504;13.478;2023-04-25T12:24:50;11.70;42.90
44121;DHT22;29783;52.504;13.478;2023-04-25T12:27:18;11.50;43.90
44121;DHT22;29783;52.504;13.478;2023-04-25T12:29:51;11.40;44.50
44121;DHT22;29783;52.504;13.478;2023-04-25T12:32:18;11.40;44.30
44121;DHT22;29783;52.504;13.478;2023-04-25T12:34:44;11.60;42.40
44121;DHT22;29783;52.504;13.478;2023-04-25T12:37:10;11.80;41.50
44121;DHT22;29783;52.504;13.478;2023-04-25T12:39:36;12.00;39.50
44121;DHT22;29783;52.504;13.478;2023-04-25T12:42:02;12.40;38.80
44121;DHT22;29783;52.504;13.478;2023-04-25T12:44:28;12.90;38.40
44121;DHT22;29783;52.504;13.478;2023-04-25T12:46:54;13.50;37.60
44121;DHT22;29783;52.504;13.478;2023-04-25T12:49:20;13.40;37.50
44121;DHT22;29783;52.504;13.478;2023-04-25T12:51:46;13.30;37.30
44121;DHT22;29783;52.504;13.478;2023-04-25T12:54:12;13.20;38.20
44121;DHT22;29783;52.504;13.478;2023-04-25T12:56:38;12.50;39.30
44121;DHT22;29783;52.504;13.478;2023-04-25T12:59:04;12.20;40.60
44121;DHT22;29783;52.504;13.478;2023-04-25T13:01:29;12.30;40.80
44121;DHT22;29783;52.504;13.478;2023-04-25T13:03:55;12.10;41.50
44121;DHT22;29783;52.504;13.478;2023-04-25T13:06:22;12.20;41.60
44121;DHT22;29783;52.504;13.478;2023-04-25T13:08:47;12.00;40.00
44121;DHT22;29783;52.504;13.478;2023-04-25T13:11:13;11.80;41.60
44121;DHT22;29783;52.504;13.478;2023-04-25T13:13:40;12.20;41.00
44121;DHT22;29783;52.504;13.478;2023-04-25T13:16:06;12.40;38.80
44121;DHT22;29783;52.504;13.478;2023-04-25T13:18:32;12.70;39.00
44121;DHT22;29783;52.504;13.478;2023-04-25T13:20:58;12.90;37.80
44121;DHT22;29783;52.504;13.478;2023-04-25T13:23:28;13.30;36.50
44121;DHT22;29783;52.504;13.478;2023-04-25T13:25:55;13.70;36.40
44121;DHT22;29783;52.504;13.478;2023-04-25T13:28:21;14.40;34.90
44121;DHT22;29783;52.504;13.478;2023-04-25T13:30:47;15.70;33.20
44121;DHT22;29783;52.504;13.478;2023-04-25T13:33:14;17.30;31.40
44121;DHT22;29783;52.504;13.478;2023-04-25T13:35:41;17.20;31.40
44121;DHT22;29783;52.504;13.478;2023-04-25T13:38:06;15.90;33.10
44121;DHT22;29783;52.504;13.478;2023-04-25T13:40:32;14.00;37.00
44121;DHT22;29783;52.504;13.478;2023-04-25T13:42:58;12.80;39.60
44121;DHT22;29783;52.504;13.478;2023-04-25T13:45:24;12.80;39.70
44121;DHT22;29783;52.504;13.478;2023-04-25T13:47:50;12.70;40.30
44121;DHT22;29783;52.504;13.478;2023-04-25T13:50:16;12.30;41.40
44121;DHT22;29783;52.504;13.478;2023-04-25T13:52:42;12.30;41.90
44121;DHT22;29783;52.504;13.478;2023-04-25T13:55:09;12.20;42.40
44121;DHT22;29783;52.504;13.478;2023-04-25T13:57:35;12.80;41.10
44121;DHT22;29783;52.504;13.478;2023-04-25T14:00:02;12.40;41.30
44121;DHT22;29783;52.504;13.478;2023-04-25T14:02:37;12.70;41.10
44121;DHT22;29783;52.504;13.478;2023-04-25T14:05:06;12.70;41.10
44121;DHT22;29783;52.504;13.478;2023-04-25T14:07:36;12.50;41.90
44121;DHT22;29783;52.504;13.478;2023-04-25T14:10:03;12.70;41.90
44121;DHT22;29783;52.504;13.478;2023-04-25T14:12:30;12.30;42.10
44121;DHT22;29783;52.504;13.478;2023-04-25T14:14:55;11.50;43.90
44121;DHT22;29783;52.504;13.478;2023-04-25T14:17:21;11.30;44.70
44121;DHT22;29783;52.504;13.478;2023-04-25T14:19:47;11.30;45.20
44121;DHT22;29783;52.504;13.478;2023-04-25T14:22:14;11.30;44.90
44121;DHT22;29783;52.504;13.478;2023-04-25T14:24:41;11.20;45.40
44121;DHT22;29783;52.504;13.478;2023-04-25T14:27:06;11.10;44.40
44121;DHT22;29783;52.504;13.478;2023-04-25T14:29:32;10.90;44.90
44121;DHT22;29783;52.504;13.478;2023-04-25T14:31:58;10.80;45.30
44121;DHT22;29783;52.504;13.478;2023-04-25T14:34:24;10.80;45.40
44121;DHT22;29783;52.504;13.478;2023-04-25T14:36:51;10.80;45.30
44121;DHT22;29783;52.504;13.478;2023-04-25T14:39:18;10.70;45.10
44121;DHT22;29783;52.504;13.478;2023-04-25T14:41:44;10.80;45.50
44121;DHT22;29783;52.504;13.478;2023-04-25T14:44:09;11.00;45.20
44121;DHT22;29783;52.504;13.478;2023-04-25T14:46:35;11.50;44.00
44121;DHT22;29783;52.504;13.478;2023-04-25T14:49:02;11.80;43.80
44121;DHT22;29783;52.504;13.478;2023-04-25T14:51:28;12.60;41.90
44121;DHT22;29783;52.504;13.478;2023-04-25T14:53:53;14.00;39.70
44121;DHT22;29783;52.504;13.478;2023-04-25T14:56:19;14.50;38.30
44121;DHT22;29783;52.504;13.478;2023-04-25T14:58:45;13.70;40.00
44121;DHT22;29783;52.504;13.478;2023-04-25T15:01:11;12.80;42.10
44121;DHT22;29783;52.504;13.478;2023-04-25T15:03:39;12.20;43.70
44121;DHT22;29783;52.504;13.478;2023-04-25T15:06:05;11.70;45.30
44121;DHT22;29783;52.504;13.478;2023-04-25T15:08:31;11.20;46.80
44121;DHT22;29783;52.504;13.478;2023-04-25T15:10:58;10.70;48.50
44121;DHT22;29783;52.504;13.478;2023-04-25T15:13:24;10.60;49.10
44121;DHT22;29783;52.504;13.478;2023-04-25T15:15:50;10.50;49.70
44121;DHT22;29783;52.504;13.478;2023-04-25T15:18:20;10.50;49.60
44121;DHT22;29783;52.504;13.478;2023-04-25T15:20:50;10.50;49.70
44121;DHT22;29783;52.504;13.478;2023-04-25T15:23:17;10.50;49.80
44121;DHT22;29783;52.504;13.478;2023-04-25T15:25:42;10.70;49.80
44121;DHT22;29783;52.504;13.478;2023-04-25T15:28:08;10.70;48.90
44121;DHT22;29783;52.504;13.478;2023-04-25T15:30:34;10.90;48.40
44121;DHT22;29783;52.504;13.478;2023-04-25T15:32:59;10.90;47.80
44121;DHT22;29783;52.504;13.478;2023-04-25T15:35:25;11.00;47.70
44121;DHT22;29783;52.504;13.478;2023-04-25T15:37:51;11.60;46.50
44121;DHT22;29783;52.504;13.478;2023-04-25T15:40:16;12.50;43.60